Time,TemperatureF,DewpointF,PressureIn,WindDirection,WindDirectionDegrees,WindSpeedMPH,WindSpeedGustMPH,Humidity,HourlyPrecipIn,Conditions,Clouds,dailyrainin,SoftwareType,DateUTC
2013-05-22 00:02:00,71.0,67.3,29.88,SSW,202,0.0,0.0,88,0.00,,---,0.00,VWS V14.00,2013-05-22 04:02:00,
2013-05-22 00:03:00,70.9,67.2,29.88,SSW,202,0.0,0.0,88,0.00,,---,0.00,VWS V14.00,2013-05-22 04:03:00,
2013-05-22 00:04:00,70.9,67.2,29.88,SSW,202,0.0,1.0,88,0.00,,---,0.00,VWS V14.00,2013-05-22 04:04:00,
2013-05-22 00:10:00,70.7,67.3,29.88,SSW,202,0.0,0.0,89,0.00,,---,0.00,VWS V14.00,2013-05-22 04:10:00,
2013-05-22 00:15:00,70.6,67.2,29.88,SSW,202,0.0,0.0,89,0.00,,---,0.00,VWS V14.00,2013-05-22 04:15:00,
2013-05-22 00:20:00,70.5,67.1,29.88,North,11,0.0,0.0,89,0.00,,---,0.00,VWS V14.00,2013-05-22 04:20:00,
2013-05-22 00:25:00,70.4,67.3,29.89,SW,216,0.0,0.0,90,0.00,,---,0.00,VWS V14.00,2013-05-22 04:25:00,
2013-05-22 00:30:00,70.3,67.2,29.89,SW,234,0.0,0.0,90,0.00,,---,0.00,VWS V14.00,2013-05-22 04:30:00,
2013-05-22 00:35:00,70.2,67.1,29.89,East,82,0.0,0.0,90,0.00,,---,0.00,VWS V14.00,2013-05-22 04:35:00,
2013-05-22 00:40:00,70.2,67.1,29.89,East,82,0.0,0.0,90,0.00,,---,0.00,VWS V14.00,2013-05-22 04:40:00,
2013-05-22 00:45:00,70.1,67.0,29.89,SSE,167,0.0,0.0,90,0.00,,---,0.00,VWS V14.00,2013-05-22 04:45:00,
2013-05-22 00:50:00,70.1,67.4,29.89,SSE,167,0.0,0.0,91,0.00,,---,0.00,VWS V14.00,2013-05-22 04:50:00,
2013-05-22 00:55:00,70.0,67.3,29.89,West,279,0.0,0.0,91,0.00,,---,0.00,VWS V14.00,2013-05-22 04:55:00,
2013-05-22 01:00:00,69.9,67.2,29.88,West,279,0.0,0.0,91,0.00,,---,0.00,VWS V14.00,2013-05-22 05:00:00,
2013-05-22 01:05:00,69.8,67.1,29.89,West,279,0.0,0.0,91,0.00,,---,0.00,VWS V14.00,2013-05-22 05:05:00,
2013-05-22 01:10:00,69.7,67.0,29.89,West,279,0.0,0.0,91,0.00,,---,0.00,VWS V14.00,2013-05-22 05:10:00,
2013-05-22 01:15:00,69.7,67.0,29.89,WNW,286,0.0,0.0,91,0.00,,---,0.00,VWS V14.00,2013-05-22 05:15:00,
2013-05-22 01:20:00,69.7,67.0,29.89,WSW,243,0.0,0.0,91,0.00,,---,0.00,VWS V14.00,2013-05-22 05:20:00,
2013-05-22 01:25:00,69.6,66.9,29.89,WSW,243,0.0,0.0,91,0.00,,---,0.00,VWS V14.00,2013-05-22 05:25:00,
2013-05-22 01:30:00,69.6,66.9,29.89,SSW,195,0.0,0.0,91,0.00,,---,0.00,VWS V14.00,2013-05-22 05:30:00,
2013-05-22 01:35:00,69.5,66.8,29.89,SSW,195,0.0,0.0,91,0.00,,---,0.00,VWS V14.00,2013-05-22 05:35:00,
2013-05-22 01:41:00,69.5,67.1,29.89,SSW,195,0.0,0.0,92,0.00,,---,0.00,VWS V14.00,2013-05-22 05:41:00,
2013-05-22 01:46:00,69.4,67.0,29.89,SSW,195,0.0,0.0,92,0.00,,---,0.00,VWS V14.00,2013-05-22 05:46:00,
2013-05-22 01:51:00,69.3,66.9,29.89,SSW,195,0.0,0.0,92,0.00,,---,0.00,VWS V14.00,2013-05-22 05:51:00,
2013-05-22 01:56:00,69.3,66.9,29.89,SSW,195,0.0,1.0,92,0.00,,---,0.00,VWS V14.00,2013-05-22 05:56:00,
2013-05-22 02:01:00,69.2,66.8,29.88,South,182,2.0,2.0,92,0.00,,---,0.00,VWS V14.00,2013-05-22 06:01:00,
2013-05-22 02:06:00,69.1,66.7,29.88,SSW,192,0.0,0.0,92,0.00,,---,0.00,VWS V14.00,2013-05-22 06:06:00,
2013-05-22 02:11:00,69.1,66.7,29.88,SSW,192,0.0,0.0,92,0.00,,---,0.00,VWS V14.00,2013-05-22 06:11:00,
2013-05-22 02:16:00,69.0,66.6,29.88,SSW,192,0.0,0.0,92,0.00,,---,0.00,VWS V14.00,2013-05-22 06:16:00,
2013-05-22 02:21:00,68.9,66.5,29.88,SSW,192,0.0,0.0,92,0.00,,---,0.00,VWS V14.00,2013-05-22 06:21:00,
2013-05-22 02:26:00,68.8,66.4,29.88,SSW,192,0.0,0.0,92,0.00,,---,0.00,VWS V14.00,2013-05-22 06:26:00,
2013-05-22 02:31:00,68.8,66.4,29.88,SSW,192,0.0,0.0,92,0.00,,---,0.00,VWS V14.00,2013-05-22 06:31:00,
2013-05-22 02:36:00,68.7,66.6,29.88,SSW,192,0.0,0.0,93,0.00,,---,0.00,VWS V14.00,2013-05-22 06:36:00,
2013-05-22 02:41:00,68.6,66.5,29.88,WSW,240,0.0,0.0,93,0.00,,---,0.00,VWS V14.00,2013-05-22 06:41:00,
2013-05-22 02:46:00,68.7,66.6,29.88,West,269,0.0,0.0,93,0.00,,---,0.00,VWS V14.00,2013-05-22 06:46:00,
2013-05-22 02:51:00,68.6,66.5,29.88,West,269,0.0,0.0,93,0.00,,---,0.00,VWS V14.00,2013-05-22 06:51:00,
2013-05-22 02:56:00,68.5,66.4,29.87,West,269,0.0,0.0,93,0.00,,---,0.00,VWS V14.00,2013-05-22 06:56:00,
2013-05-22 03:01:00,68.5,66.4,29.87,West,269,0.0,0.0,93,0.00,,---,0.00,VWS V14.00,2013-05-22 07:01:00,
2013-05-22 03:06:00,68.5,66.4,29.87,West,269,0.0,0.0,93,0.00,,---,0.00,VWS V14.00,2013-05-22 07:06:00,
2013-05-22 03:11:00,68.5,66.4,29.87,West,269,0.0,0.0,93,0.00,,---,0.00,VWS V14.00,2013-05-22 07:11:00,
2013-05-22 03:17:00,68.4,66.3,29.87,SSE,153,0.0,0.0,93,0.00,,---,0.00,VWS V14.00,2013-05-22 07:17:00,
2013-05-22 03:22:00,68.3,66.2,29.86,WSW,254,0.0,1.0,93,0.00,,---,0.00,VWS V14.00,2013-05-22 07:22:00,
2013-05-22 03:27:00,68.3,66.2,29.87,SW,227,0.0,1.0,93,0.00,,---,0.00,VWS V14.00,2013-05-22 07:27:00,
2013-05-22 03:32:00,68.2,66.1,29.87,SW,227,0.0,0.0,93,0.00,,---,0.00,VWS V14.00,2013-05-22 07:32:00,
2013-05-22 03:37:00,68.2,66.1,29.87,SW,217,0.0,0.0,93,0.00,,---,0.00,VWS V14.00,2013-05-22 07:37:00,
2013-05-22 03:42:00,68.1,66.0,29.87,SW,217,0.0,0.0,93,0.00,,---,0.00,VWS V14.00,2013-05-22 07:42:00,
2013-05-22 03:47:00,68.1,66.3,29.87,SSW,213,0.0,0.0,94,0.00,,---,0.00,VWS V14.00,2013-05-22 07:47:00,
2013-05-22 03:52:00,68.0,66.2,29.87,SSW,213,0.0,0.0,94,0.00,,---,0.00,VWS V14.00,2013-05-22 07:52:00,
2013-05-22 03:57:00,67.9,65.8,29.87,SSW,213,0.0,0.0,93,0.00,,---,0.00,VWS V14.00,2013-05-22 07:57:00,
2013-05-22 04:02:00,67.9,66.1,29.87,SSW,213,0.0,0.0,94,0.00,,---,0.00,VWS V14.00,2013-05-22 08:02:00,
2013-05-22 04:07:00,67.8,66.0,29.87,SSW,213,0.0,0.0,94,0.00,,---,0.00,VWS V14.00,2013-05-22 08:07:00,
2013-05-22 04:12:00,67.8,66.0,29.86,SSW,213,0.0,0.0,94,0.00,,---,0.00,VWS V14.00,2013-05-22 08:12:00,
2013-05-22 04:17:00,67.7,65.9,29.87,SSW,213,0.0,0.0,94,0.00,,---,0.00,VWS V14.00,2013-05-22 08:17:00,
2013-05-22 04:22:00,67.7,65.9,29.87,SSW,213,0.0,0.0,94,0.00,,---,0.00,VWS V14.00,2013-05-22 08:22:00,
2013-05-22 04:27:00,67.6,65.8,29.87,SSW,213,0.0,0.0,94,0.00,,---,0.00,VWS V14.00,2013-05-22 08:27:00,
2013-05-22 04:32:00,67.6,65.8,29.87,SSW,213,0.0,0.0,94,0.00,,---,0.00,VWS V14.00,2013-05-22 08:32:00,
2013-05-22 04:37:00,67.6,65.8,29.87,SSW,213,0.0,0.0,94,0.00,,---,0.00,VWS V14.00,2013-05-22 08:37:00,
2013-05-22 04:42:00,67.6,65.8,29.86,SSW,213,0.0,0.0,94,0.00,,---,0.00,VWS V14.00,2013-05-22 08:42:00,
2013-05-22 04:48:00,67.6,65.8,29.86,SSW,213,0.0,0.0,94,0.00,,---,0.00,VWS V14.00,2013-05-22 08:48:00,
2013-05-22 04:53:00,67.5,65.7,29.86,SSW,213,0.0,0.0,94,0.00,,---,0.00,VWS V14.00,2013-05-22 08:53:00,
2013-05-22 04:58:00,67.5,65.7,29.87,SSW,213,0.0,0.0,94,0.00,,---,0.00,VWS V14.00,2013-05-22 08:58:00,
2013-05-22 05:03:00,67.5,65.7,29.87,SSW,213,0.0,0.0,94,0.00,,---,0.00,VWS V14.00,2013-05-22 09:03:00,
2013-05-22 05:08:00,67.5,65.7,29.87,SSW,213,0.0,0.0,94,0.00,,---,0.00,VWS V14.00,2013-05-22 09:08:00,
2013-05-22 05:13:00,67.5,66.0,29.87,SSW,213,0.0,0.0,95,0.00,,---,0.00,VWS V14.00,2013-05-22 09:13:00,
2013-05-22 05:18:00,67.5,66.0,29.87,SSW,213,0.0,0.0,95,0.00,,---,0.00,VWS V14.00,2013-05-22 09:18:00,
2013-05-22 05:23:00,67.4,65.9,29.87,SSW,213,0.0,0.0,95,0.00,,---,0.00,VWS V14.00,2013-05-22 09:23:00,
2013-05-22 05:28:00,67.3,65.5,29.87,SSW,213,0.0,0.0,94,0.00,,---,0.00,VWS V14.00,2013-05-22 09:28:00,
2013-05-22 05:33:00,67.3,65.8,29.88,SSW,213,0.0,0.0,95,0.00,,---,0.00,VWS V14.00,2013-05-22 09:33:00,
2013-05-22 05:38:00,67.3,65.8,29.88,SSW,213,0.0,0.0,95,0.00,,---,0.00,VWS V14.00,2013-05-22 09:38:00,
2013-05-22 05:43:00,67.3,65.8,29.89,SSW,213,0.0,0.0,95,0.00,,---,0.00,VWS V14.00,2013-05-22 09:43:00,
2013-05-22 05:48:00,67.3,65.8,29.89,SSW,213,0.0,0.0,95,0.00,,---,0.00,VWS V14.00,2013-05-22 09:48:00,
2013-05-22 05:53:00,67.4,65.9,29.89,SSW,213,0.0,0.0,95,0.00,,---,0.00,VWS V14.00,2013-05-22 09:53:00,
2013-05-22 05:58:00,67.4,65.9,29.88,SSW,213,0.0,0.0,95,0.00,,---,0.00,VWS V14.00,2013-05-22 09:58:00,
2013-05-22 06:03:00,67.6,66.1,29.89,SSW,213,0.0,0.0,95,0.00,,---,0.00,VWS V14.00,2013-05-22 10:03:00,
2013-05-22 06:08:00,67.6,66.1,29.89,SSW,213,0.0,0.0,95,0.00,,---,0.00,VWS V14.00,2013-05-22 10:08:00,
2013-05-22 06:13:00,67.7,66.2,29.89,SSW,213,0.0,0.0,95,0.00,,---,0.00,VWS V14.00,2013-05-22 10:13:00,
2013-05-22 06:18:00,67.8,66.3,29.89,SSW,213,0.0,0.0,95,0.00,,---,0.00,VWS V14.00,2013-05-22 10:18:00,
2013-05-22 06:24:00,67.9,66.4,29.89,SSW,213,0.0,0.0,95,0.00,,---,0.00,VWS V14.00,2013-05-22 10:24:00,
2013-05-22 06:29:00,68.0,66.5,29.90,SSW,213,0.0,0.0,95,0.00,,---,0.00,VWS V14.00,2013-05-22 10:29:00,
2013-05-22 06:34:00,68.1,66.6,29.90,SSW,213,0.0,0.0,95,0.00,,---,0.00,VWS V14.00,2013-05-22 10:34:00,
2013-05-22 06:39:00,68.1,66.6,29.90,SSW,213,0.0,0.0,95,0.00,,---,0.00,VWS V14.00,2013-05-22 10:39:00,
2013-05-22 06:44:00,68.2,66.7,29.90,SSW,213,0.0,0.0,95,0.00,,---,0.00,VWS V14.00,2013-05-22 10:44:00,
2013-05-22 06:49:00,68.3,66.8,29.90,SSW,213,0.0,0.0,95,0.00,,---,0.00,VWS V14.00,2013-05-22 10:49:00,
2013-05-22 06:54:00,68.3,66.8,29.90,SSW,213,0.0,0.0,95,0.00,,---,0.00,VWS V14.00,2013-05-22 10:54:00,
2013-05-22 06:59:00,68.4,66.9,29.90,SSW,213,0.0,0.0,95,0.00,,---,0.00,VWS V14.00,2013-05-22 10:59:00,
2013-05-22 07:04:00,68.5,67.0,29.90,SSW,213,0.0,1.0,95,0.00,,---,0.00,VWS V14.00,2013-05-22 11:04:00,
2013-05-22 07:09:00,68.6,67.1,29.90,SSW,212,0.0,0.0,95,0.00,,---,0.00,VWS V14.00,2013-05-22 11:09:00,
2013-05-22 07:14:00,68.7,67.2,29.91,SSW,212,0.0,0.0,95,0.00,,---,0.00,VWS V14.00,2013-05-22 11:14:00,
2013-05-22 07:19:00,68.8,67.3,29.91,SSW,212,0.0,1.0,95,0.00,,---,0.00,VWS V14.00,2013-05-22 11:19:00,
2013-05-22 07:24:00,68.9,67.4,29.91,SSW,212,0.0,0.0,95,0.00,,---,0.00,VWS V14.00,2013-05-22 11:24:00,
2013-05-22 07:29:00,68.9,67.4,29.91,SSW,212,0.0,0.0,95,0.00,,---,0.00,VWS V14.00,2013-05-22 11:29:00,
2013-05-22 07:34:00,69.0,67.5,29.91,SSW,212,0.0,0.0,95,0.00,,---,0.00,VWS V14.00,2013-05-22 11:34:00,
2013-05-22 07:39:00,69.1,67.6,29.92,SSW,212,0.0,0.0,95,0.00,,---,0.00,VWS V14.00,2013-05-22 11:39:00,
2013-05-22 07:44:00,69.2,67.7,29.92,SSW,212,0.0,0.0,95,0.00,,---,0.00,VWS V14.00,2013-05-22 11:44:00,
2013-05-22 07:49:00,69.3,67.8,29.92,SSW,212,0.0,0.0,95,0.00,,---,0.00,VWS V14.00,2013-05-22 11:49:00,
2013-05-22 07:55:00,69.3,67.8,29.92,SSW,212,0.0,0.0,95,0.00,,---,0.00,VWS V14.00,2013-05-22 11:55:00,
2013-05-22 08:00:00,69.3,67.8,29.92,SSW,212,0.0,0.0,95,0.00,,---,0.00,VWS V14.00,2013-05-22 12:00:00,
2013-05-22 08:05:00,69.3,67.8,29.92,SSW,212,0.0,0.0,95,0.00,,---,0.00,VWS V14.00,2013-05-22 12:05:00,
2013-05-22 08:10:00,69.4,67.9,29.92,SSW,212,0.0,0.0,95,0.00,,---,0.00,VWS V14.00,2013-05-22 12:10:00,
2013-05-22 08:15:00,69.4,67.9,29.92,SSW,212,0.0,0.0,95,0.00,,---,0.00,VWS V14.00,2013-05-22 12:15:00,
2013-05-22 08:20:00,69.5,68.0,29.92,SSW,212,0.0,0.0,95,0.00,,---,0.00,VWS V14.00,2013-05-22 12:20:00,
2013-05-22 08:25:00,69.5,68.0,29.92,SSW,212,0.0,0.0,95,0.00,,---,0.00,VWS V14.00,2013-05-22 12:25:00,
2013-05-22 08:30:00,69.5,68.0,29.93,SSW,212,0.0,0.0,95,0.00,,---,0.00,VWS V14.00,2013-05-22 12:30:00,
2013-05-22 08:35:00,69.5,68.0,29.93,SSE,161,0.0,0.0,95,0.00,,---,0.00,VWS V14.00,2013-05-22 12:35:00,
2013-05-22 08:40:00,69.5,68.0,29.93,SSE,161,0.0,0.0,95,0.00,,---,0.00,VWS V14.00,2013-05-22 12:40:00,
2013-05-22 08:45:00,69.5,68.0,29.93,SSE,161,0.0,0.0,95,0.00,,---,0.00,VWS V14.00,2013-05-22 12:45:00,
2013-05-22 08:50:00,69.6,68.1,29.93,SSE,161,0.0,0.0,95,0.00,,---,0.00,VWS V14.00,2013-05-22 12:50:00,
2013-05-22 08:55:00,69.7,68.2,29.93,SSE,161,0.0,0.0,95,0.00,,---,0.00,VWS V14.00,2013-05-22 12:55:00,
2013-05-22 09:00:00,69.7,68.2,29.92,SSE,161,0.0,0.0,95,0.00,,---,0.00,VWS V14.00,2013-05-22 13:00:00,
2013-05-22 09:05:00,69.8,68.3,29.92,SSE,161,0.0,0.0,95,0.00,,---,0.00,VWS V14.00,2013-05-22 13:05:00,
2013-05-22 09:10:00,70.0,68.5,29.92,SSE,161,0.0,0.0,95,0.00,,---,0.00,VWS V14.00,2013-05-22 13:10:00,
2013-05-22 09:15:00,70.0,68.5,29.92,SSE,161,0.0,0.0,95,0.00,,---,0.00,VWS V14.00,2013-05-22 13:15:00,
2013-05-22 09:20:00,70.1,68.6,29.92,SSE,161,0.0,0.0,95,0.00,,---,0.00,VWS V14.00,2013-05-22 13:20:00,
2013-05-22 09:26:00,70.2,68.7,29.92,SSE,161,0.0,0.0,95,0.00,,---,0.00,VWS V14.00,2013-05-22 13:26:00,
2013-05-22 09:31:00,70.3,68.8,29.92,SSE,161,0.0,0.0,95,0.00,,---,0.00,VWS V14.00,2013-05-22 13:31:00,
2013-05-22 09:36:00,70.3,68.8,29.92,SSE,161,0.0,0.0,95,0.00,,---,0.00,VWS V14.00,2013-05-22 13:36:00,
2013-05-22 09:41:00,70.3,68.8,29.92,SSE,161,0.0,0.0,95,0.00,,---,0.00,VWS V14.00,2013-05-22 13:41:00,
2013-05-22 09:46:00,70.4,68.9,29.92,SSE,161,0.0,0.0,95,0.00,,---,0.00,VWS V14.00,2013-05-22 13:46:00,
2013-05-22 09:51:00,69.5,67.7,29.92,SSE,161,0.0,0.0,94,0.00,,---,0.00,VWS V14.00,2013-05-22 13:51:00,
2013-05-22 09:56:00,68.7,66.9,29.92,SSE,161,0.0,0.0,94,0.00,,---,0.00,VWS V14.00,2013-05-22 13:56:00,
2013-05-22 10:01:00,68.3,66.5,29.92,SSE,161,0.0,0.0,94,0.00,,---,0.00,VWS V14.00,2013-05-22 14:01:00,
2013-05-22 10:06:00,68.1,66.3,29.92,SSE,161,0.0,1.0,94,0.00,,---,0.00,VWS V14.00,2013-05-22 14:06:00,
2013-05-22 10:11:00,67.9,66.1,29.92,SSE,161,0.0,0.0,94,0.00,,---,0.00,VWS V14.00,2013-05-22 14:11:00,
2013-05-22 10:16:00,67.8,66.0,29.93,SSE,161,0.0,0.0,94,0.00,,---,0.00,VWS V14.00,2013-05-22 14:16:00,
2013-05-22 10:21:00,67.7,65.9,29.93,SSE,161,0.0,0.0,94,0.00,,---,0.00,VWS V14.00,2013-05-22 14:21:00,
2013-05-22 10:26:00,67.8,66.0,29.92,SSE,161,1.0,1.0,94,0.00,,---,0.00,VWS V14.00,2013-05-22 14:26:00,
2013-05-22 10:31:00,67.8,66.0,29.92,SSE,161,0.0,1.0,94,0.00,,---,0.00,VWS V14.00,2013-05-22 14:31:00,
2013-05-22 10:36:00,67.7,65.9,29.92,SSE,161,0.0,0.0,94,0.00,,---,0.00,VWS V14.00,2013-05-22 14:36:00,
2013-05-22 10:41:00,67.8,66.0,29.92,SSE,161,0.0,0.0,94,0.00,,---,0.00,VWS V14.00,2013-05-22 14:41:00,
2013-05-22 10:46:00,67.9,66.1,29.93,SSE,161,0.0,0.0,94,0.00,,---,0.00,VWS V14.00,2013-05-22 14:46:00,
2013-05-22 10:52:00,68.1,66.3,29.92,SSE,161,0.0,0.0,94,0.00,,---,0.00,VWS V14.00,2013-05-22 14:52:00,
2013-05-22 10:57:00,68.2,66.4,29.92,SSE,161,0.0,0.0,94,0.00,,---,0.00,VWS V14.00,2013-05-22 14:57:00,
2013-05-22 11:02:00,68.2,66.1,29.92,SSE,161,0.0,0.0,93,0.00,,---,0.00,VWS V14.00,2013-05-22 15:02:00,
2013-05-22 11:07:00,68.4,66.3,29.92,SSE,161,0.0,0.0,93,0.00,,---,0.00,VWS V14.00,2013-05-22 15:07:00,
2013-05-22 11:12:00,68.6,66.5,29.92,SSE,161,0.0,0.0,93,0.00,,---,0.00,VWS V14.00,2013-05-22 15:12:00,
2013-05-22 11:17:00,68.9,67.1,29.92,SSE,161,0.0,0.0,94,0.00,,---,0.00,VWS V14.00,2013-05-22 15:17:00,
2013-05-22 11:22:00,69.2,67.1,29.92,SSE,161,0.0,0.0,93,0.00,,---,0.00,VWS V14.00,2013-05-22 15:22:00,
2013-05-22 11:27:00,69.5,67.4,29.92,SSE,161,0.0,0.0,93,0.00,,---,0.00,VWS V14.00,2013-05-22 15:27:00,
2013-05-22 11:32:00,69.9,67.8,29.92,SSE,161,0.0,0.0,93,0.00,,---,0.00,VWS V14.00,2013-05-22 15:32:00,
2013-05-22 11:37:00,70.2,68.1,29.92,SSE,161,0.0,0.0,93,0.00,,---,0.00,VWS V14.00,2013-05-22 15:37:00,
2013-05-22 11:42:00,70.5,68.1,29.92,SSE,161,0.0,0.0,92,0.00,,---,0.00,VWS V14.00,2013-05-22 15:42:00,
2013-05-22 11:47:00,70.7,68.3,29.92,SSE,161,0.0,0.0,92,0.00,,---,0.00,VWS V14.00,2013-05-22 15:47:00,
2013-05-22 11:52:00,70.8,68.4,29.92,SSE,161,0.0,0.0,92,0.00,,---,0.00,VWS V14.00,2013-05-22 15:52:00,
2013-05-22 11:57:00,71.0,68.2,29.91,SSE,161,0.0,0.0,91,0.00,,---,0.00,VWS V14.00,2013-05-22 15:57:00,
2013-05-22 12:02:00,71.2,68.4,29.91,SSE,161,0.0,0.0,91,0.00,,---,0.00,VWS V14.00,2013-05-22 16:02:00,
2013-05-22 12:07:00,71.5,69.1,29.91,SSE,161,0.0,0.0,92,0.00,,---,0.00,VWS V14.00,2013-05-22 16:07:00,
2013-05-22 12:12:00,72.0,69.6,29.92,SSE,161,0.0,0.0,92,0.00,,---,0.00,VWS V14.00,2013-05-22 16:12:00,
2013-05-22 12:17:00,72.4,69.9,29.92,SSE,161,0.0,0.0,92,0.00,,---,0.00,VWS V14.00,2013-05-22 16:17:00,
2013-05-22 12:22:00,73.0,70.9,29.92,SW,218,0.0,1.0,93,0.00,,---,0.00,VWS V14.00,2013-05-22 16:22:00,
2013-05-22 12:27:00,73.5,71.0,29.92,South,180,3.0,3.0,92,0.00,,---,0.00,VWS V14.00,2013-05-22 16:27:00,
2013-05-22 12:33:00,73.9,71.4,29.92,East,88,0.0,2.0,92,0.00,,---,0.00,VWS V14.00,2013-05-22 16:33:00,
2013-05-22 12:38:00,74.1,71.3,29.91,South,170,0.0,1.0,91,0.00,,---,0.00,VWS V14.00,2013-05-22 16:38:00,
2013-05-22 12:43:00,74.2,71.4,29.91,SSE,150,0.0,2.0,91,0.00,,---,0.00,VWS V14.00,2013-05-22 16:43:00,
2013-05-22 12:48:00,74.4,71.6,29.91,SSW,207,0.0,0.0,91,0.00,,---,0.00,VWS V14.00,2013-05-22 16:48:00,
2013-05-22 12:53:00,74.6,71.8,29.91,SSW,207,0.0,0.0,91,0.00,,---,0.00,VWS V14.00,2013-05-22 16:53:00,
2013-05-22 12:58:00,74.8,71.7,29.91,ESE,112,0.0,0.0,90,0.00,,---,0.00,VWS V14.00,2013-05-22 16:58:00,
2013-05-22 13:03:00,74.9,71.8,29.91,ENE,72,1.0,1.0,90,0.00,,---,0.00,VWS V14.00,2013-05-22 17:03:00,
2013-05-22 13:08:00,74.9,71.8,29.91,ENE,72,0.0,0.0,90,0.00,,---,0.00,VWS V14.00,2013-05-22 17:08:00,
2013-05-22 13:13:00,75.1,72.0,29.91,ESE,123,0.0,5.0,90,0.00,,---,0.00,VWS V14.00,2013-05-22 17:13:00,
2013-05-22 13:18:00,75.3,72.2,29.91,SSW,196,0.0,0.0,90,0.00,,---,0.00,VWS V14.00,2013-05-22 17:18:00,
2013-05-22 13:23:00,75.4,71.9,29.90,SSW,213,1.0,2.0,89,0.00,,---,0.00,VWS V14.00,2013-05-22 17:23:00,
2013-05-22 13:28:00,75.6,72.1,29.90,SSW,202,0.0,0.0,89,0.00,,---,0.00,VWS V14.00,2013-05-22 17:28:00,
2013-05-22 13:33:00,75.8,72.3,29.90,SE,134,0.0,2.0,89,0.00,,---,0.00,VWS V14.00,2013-05-22 17:33:00,
2013-05-22 13:38:00,76.0,72.2,29.90,SSE,167,0.0,0.0,88,0.00,,---,0.00,VWS V14.00,2013-05-22 17:38:00,
2013-05-22 13:43:00,76.2,72.4,29.90,South,188,0.0,0.0,88,0.00,,---,0.00,VWS V14.00,2013-05-22 17:43:00,
2013-05-22 13:48:00,76.6,72.8,29.90,SSE,165,4.0,4.0,88,0.00,,---,0.00,VWS V14.00,2013-05-22 17:48:00,
2013-05-22 13:53:00,76.8,72.6,29.90,SSE,154,0.0,0.0,87,0.00,,---,0.00,VWS V14.00,2013-05-22 17:53:00,
2013-05-22 13:59:00,76.9,72.4,29.89,SSW,209,0.0,2.0,86,0.00,,---,0.00,VWS V14.00,2013-05-22 17:59:00,
2013-05-22 14:04:00,77.1,72.6,29.89,West,279,0.0,0.0,86,0.00,,---,0.00,VWS V14.00,2013-05-22 18:04:00,
2013-05-22 14:09:00,77.4,72.9,29.89,West,259,0.0,1.0,86,0.00,,---,0.00,VWS V14.00,2013-05-22 18:09:00,
2013-05-22 14:14:00,77.6,72.7,29.89,SSW,194,0.0,1.0,85,0.00,,---,0.00,VWS V14.00,2013-05-22 18:14:00,
2013-05-22 14:19:00,78.0,73.1,29.89,SW,223,3.0,4.0,85,0.00,,---,0.00,VWS V14.00,2013-05-22 18:19:00,
2013-05-22 14:24:00,78.2,73.0,29.89,SW,232,0.0,0.0,84,0.00,,---,0.00,VWS V14.00,2013-05-22 18:24:00,
2013-05-22 14:29:00,78.4,73.2,29.89,SW,232,0.0,1.0,84,0.00,,---,0.00,VWS V14.00,2013-05-22 18:29:00,
2013-05-22 14:34:00,78.9,73.3,29.89,WNW,303,0.0,1.0,83,0.00,,---,0.00,VWS V14.00,2013-05-22 18:34:00,
2013-05-22 14:39:00,79.3,73.7,29.89,SSW,213,0.0,0.0,83,0.00,,---,0.00,VWS V14.00,2013-05-22 18:39:00,
2013-05-22 14:44:00,79.8,73.4,29.89,South,180,0.0,1.0,81,0.00,,---,0.00,VWS V14.00,2013-05-22 18:44:00,
2013-05-22 14:49:00,80.2,73.5,29.88,SSE,154,0.0,2.0,80,0.00,,---,0.00,VWS V14.00,2013-05-22 18:49:00,
2013-05-22 14:54:00,80.5,74.1,29.88,SE,144,0.0,1.0,81,0.00,,---,0.00,VWS V14.00,2013-05-22 18:54:00,
2013-05-22 14:59:00,80.9,73.8,29.88,SSW,195,0.0,0.0,79,0.00,,---,0.00,VWS V14.00,2013-05-22 18:59:00,
2013-05-22 15:05:00,81.1,73.6,29.88,SSW,209,0.0,1.0,78,0.00,,---,0.00,VWS V14.00,2013-05-22 19:05:00,
2013-05-22 15:10:00,81.3,73.8,29.88,West,274,0.0,1.0,78,0.00,,---,0.00,VWS V14.00,2013-05-22 19:10:00,
2013-05-22 15:15:00,81.6,74.1,29.88,SSE,167,0.0,0.0,78,0.00,,---,0.00,VWS V14.00,2013-05-22 19:15:00,
2013-05-22 15:20:00,82.0,74.1,29.88,South,177,0.0,0.0,77,0.00,,---,0.00,VWS V14.00,2013-05-22 19:20:00,
2013-05-22 15:25:00,82.3,74.0,29.87,SSE,165,0.0,0.0,76,0.00,,---,0.00,VWS V14.00,2013-05-22 19:25:00,
2013-05-22 15:30:00,82.3,74.4,29.87,West,259,0.0,0.0,77,0.00,,---,0.00,VWS V14.00,2013-05-22 19:30:00,
2013-05-22 15:35:00,82.7,74.4,29.87,South,180,0.0,3.0,76,0.00,,---,0.00,VWS V14.00,2013-05-22 19:35:00,
2013-05-22 15:40:00,83.2,74.5,29.87,SW,224,0.0,0.0,75,0.00,,---,0.00,VWS V14.00,2013-05-22 19:40:00,
2013-05-22 15:45:00,83.5,74.3,29.86,SW,223,0.0,0.0,74,0.00,,---,0.00,VWS V14.00,2013-05-22 19:45:00,
2013-05-22 15:50:00,83.5,74.3,29.86,SW,223,0.0,0.0,74,0.00,,---,0.00,VWS V14.00,2013-05-22 19:50:00,
2013-05-22 15:55:00,83.7,74.1,29.86,SE,129,0.0,2.0,73,0.00,,---,0.00,VWS V14.00,2013-05-22 19:55:00,
2013-05-22 16:00:00,83.9,73.9,29.86,SE,138,0.0,0.0,72,0.00,,---,0.00,VWS V14.00,2013-05-22 20:00:00,
2013-05-22 16:05:00,84.2,74.2,29.86,SSE,161,0.0,0.0,72,0.00,,---,0.00,VWS V14.00,2013-05-22 20:05:00,
2013-05-22 16:10:00,84.4,74.0,29.86,SW,233,0.0,0.0,71,0.00,,---,0.00,VWS V14.00,2013-05-22 20:10:00,
2013-05-22 16:15:00,84.6,74.6,29.86,SSE,168,0.0,0.0,72,0.00,,---,0.00,VWS V14.00,2013-05-22 20:15:00,
2013-05-22 16:20:00,84.9,74.0,29.86,South,186,0.0,1.0,70,0.00,,---,0.00,VWS V14.00,2013-05-22 20:20:00,
2013-05-22 16:26:00,85.2,74.7,29.85,WSW,258,0.0,0.0,71,0.00,,---,0.00,VWS V14.00,2013-05-22 20:26:00,
2013-05-22 16:31:00,85.4,74.5,29.85,South,175,1.0,1.0,70,0.00,,---,0.00,VWS V14.00,2013-05-22 20:31:00,
2013-05-22 16:36:00,85.5,75.0,29.85,South,189,0.0,0.0,71,0.00,,---,0.00,VWS V14.00,2013-05-22 20:36:00,
2013-05-22 16:41:00,85.7,74.4,29.85,SE,141,0.0,0.0,69,0.00,,---,0.00,VWS V14.00,2013-05-22 20:41:00,
2013-05-22 16:46:00,85.7,74.8,29.85,SE,144,0.0,1.0,70,0.00,,---,0.00,VWS V14.00,2013-05-22 20:46:00,
2013-05-22 16:51:00,85.4,74.1,29.85,West,261,0.0,0.0,69,0.00,,---,0.00,VWS V14.00,2013-05-22 20:51:00,
2013-05-22 16:56:00,85.2,73.4,29.85,West,261,0.0,0.0,68,0.00,,---,0.00,VWS V14.00,2013-05-22 20:56:00,
2013-05-22 17:01:00,85.1,73.8,29.85,West,261,0.0,0.0,69,0.00,,---,0.00,VWS V14.00,2013-05-22 21:01:00,
2013-05-22 17:06:00,85.0,73.7,29.85,South,179,1.0,4.0,69,0.00,,---,0.00,VWS V14.00,2013-05-22 21:06:00,
2013-05-22 17:11:00,85.1,73.8,29.85,SSW,208,1.0,1.0,69,0.00,,---,0.00,VWS V14.00,2013-05-22 21:11:00,
2013-05-22 17:16:00,85.1,73.4,29.85,South,185,0.0,0.0,68,0.00,,---,0.00,VWS V14.00,2013-05-22 21:16:00,
2013-05-22 17:21:00,85.1,73.8,29.85,WNW,288,0.0,0.0,69,0.00,,---,0.00,VWS V14.00,2013-05-22 21:21:00,
2013-05-22 17:26:00,85.0,73.3,29.85,West,269,1.0,1.0,68,0.00,,---,0.00,VWS V14.00,2013-05-22 21:26:00,
2013-05-22 17:31:00,84.9,72.7,29.84,South,170,0.0,0.0,67,0.00,,---,0.00,VWS V14.00,2013-05-22 21:31:00,
2013-05-22 17:36:00,84.9,72.7,29.84,WSW,254,0.0,0.0,67,0.00,,---,0.00,VWS V14.00,2013-05-22 21:36:00,
2013-05-22 17:41:00,84.8,72.6,29.84,SSW,198,0.0,0.0,67,0.00,,---,0.00,VWS V14.00,2013-05-22 21:41:00,
2013-05-22 17:46:00,84.7,72.5,29.84,South,183,1.0,1.0,67,0.00,,---,0.00,VWS V14.00,2013-05-22 21:46:00,
2013-05-22 17:52:00,84.6,72.9,29.84,ESE,103,0.0,0.0,68,0.00,,---,0.00,VWS V14.00,2013-05-22 21:52:00,
2013-05-22 17:57:00,84.5,73.2,29.84,ESE,103,0.0,0.0,69,0.00,,---,0.00,VWS V14.00,2013-05-22 21:57:00,
2013-05-22 18:02:00,84.2,72.1,29.84,SSE,163,0.0,1.0,67,0.00,,---,0.00,VWS V14.00,2013-05-22 22:02:00,
2013-05-22 18:07:00,84.0,72.3,29.84,SSE,163,0.0,0.0,68,0.00,,---,0.00,VWS V14.00,2013-05-22 22:07:00,
2013-05-22 18:12:00,83.8,71.2,29.84,SSE,149,2.0,2.0,66,0.00,,---,0.00,VWS V14.00,2013-05-22 22:12:00,
2013-05-22 18:17:00,83.7,71.6,29.84,SW,233,0.0,0.0,67,0.00,,---,0.00,VWS V14.00,2013-05-22 22:17:00,
2013-05-22 18:22:00,83.4,70.4,29.84,SW,225,0.0,0.0,65,0.00,,---,0.00,VWS V14.00,2013-05-22 22:22:00,
2013-05-22 18:27:00,83.2,70.2,29.84,South,175,0.0,1.0,65,0.00,,---,0.00,VWS V14.00,2013-05-22 22:27:00,
2013-05-22 18:32:00,83.1,70.1,29.84,SW,234,7.0,7.0,65,0.00,,---,0.00,VWS V14.00,2013-05-22 22:32:00,
2013-05-22 18:37:00,83.0,70.0,29.84,WNW,285,0.0,1.0,65,0.00,,---,0.00,VWS V14.00,2013-05-22 22:37:00,
2013-05-22 18:42:00,82.9,70.4,29.84,East,87,0.0,0.0,66,0.00,,---,0.00,VWS V14.00,2013-05-22 22:42:00,
2013-05-22 18:47:00,82.7,69.8,29.84,SSE,167,0.0,0.0,65,0.00,,---,0.00,VWS V14.00,2013-05-22 22:47:00,
2013-05-22 18:52:00,82.6,70.5,29.84,South,182,0.0,0.0,67,0.00,,---,0.00,VWS V14.00,2013-05-22 22:52:00,
2013-05-22 18:57:00,82.5,70.9,29.85,South,188,0.0,0.0,68,0.00,,---,0.00,VWS V14.00,2013-05-22 22:57:00,
2013-05-22 19:02:00,82.2,71.0,29.85,South,173,0.0,2.0,69,0.00,,---,0.00,VWS V14.00,2013-05-22 23:02:00,
2013-05-22 19:07:00,82.1,70.9,29.85,SSE,167,0.0,0.0,69,0.00,,---,0.00,VWS V14.00,2013-05-22 23:07:00,
2013-05-22 19:12:00,82.0,71.3,29.85,SSE,168,0.0,0.0,70,0.00,,---,0.00,VWS V14.00,2013-05-22 23:12:00,
2013-05-22 19:17:00,81.8,71.1,29.85,SSE,167,0.0,0.0,70,0.00,,---,0.00,VWS V14.00,2013-05-22 23:17:00,
2013-05-22 19:22:00,81.6,70.9,29.85,South,178,1.0,5.0,70,0.00,,---,0.00,VWS V14.00,2013-05-22 23:22:00,
2013-05-22 19:28:00,81.5,71.2,29.85,NW,311,0.0,1.0,71,0.00,,---,0.00,VWS V14.00,2013-05-22 23:28:00,
2013-05-22 19:33:00,81.3,71.0,29.85,WSW,250,0.0,0.0,71,0.00,,---,0.00,VWS V14.00,2013-05-22 23:33:00,
2013-05-22 19:38:00,81.1,71.2,29.85,South,186,0.0,0.0,72,0.00,,---,0.00,VWS V14.00,2013-05-22 23:38:00,
2013-05-22 19:43:00,80.9,71.0,29.85,South,186,0.0,0.0,72,0.00,,---,0.00,VWS V14.00,2013-05-22 23:43:00,
2013-05-22 19:48:00,80.7,71.2,29.86,SSW,199,0.0,0.0,73,0.00,,---,0.00,VWS V14.00,2013-05-22 23:48:00,
2013-05-22 19:53:00,80.5,71.5,29.86,SW,222,0.0,0.0,74,0.00,,---,0.00,VWS V14.00,2013-05-22 23:53:00,
2013-05-22 19:58:00,80.3,71.7,29.86,SSW,209,1.0,1.0,75,0.00,,---,0.00,VWS V14.00,2013-05-22 23:58:00,
2013-05-22 20:03:00,80.0,71.4,29.86,East,82,0.0,4.0,75,0.00,,---,0.00,VWS V14.00,2013-05-23 00:03:00,
2013-05-22 20:08:00,79.6,71.4,29.86,SW,216,0.0,2.0,76,0.00,,---,0.00,VWS V14.00,2013-05-23 00:08:00,
2013-05-22 20:13:00,79.2,71.8,29.86,WNW,302,0.0,0.0,78,0.00,,---,0.00,VWS V14.00,2013-05-23 00:13:00,
2013-05-22 20:18:00,78.9,71.5,29.86,South,171,0.0,0.0,78,0.00,,---,0.00,VWS V14.00,2013-05-23 00:18:00,
2013-05-22 20:23:00,78.6,71.6,29.86,South,181,0.0,4.0,79,0.00,,---,0.00,VWS V14.00,2013-05-23 00:23:00,
2013-05-22 20:28:00,78.2,71.2,29.86,SSW,213,0.0,3.0,79,0.00,,---,0.00,VWS V14.00,2013-05-23 00:28:00,
2013-05-22 20:33:00,77.8,71.1,29.86,SSW,206,0.0,1.0,80,0.00,,---,0.00,VWS V14.00,2013-05-23 00:33:00,
2013-05-22 20:38:00,77.4,71.1,29.87,South,180,0.0,0.0,81,0.00,,---,0.00,VWS V14.00,2013-05-23 00:38:00,
2013-05-22 20:43:00,77.0,70.7,29.86,SW,226,0.0,1.0,81,0.00,,---,0.00,VWS V14.00,2013-05-23 00:43:00,
2013-05-22 20:49:00,76.7,70.4,29.87,SW,219,0.0,0.0,81,0.00,,---,0.00,VWS V14.00,2013-05-23 00:49:00,
2013-05-22 20:54:00,76.5,70.6,29.87,South,191,0.0,3.0,82,0.00,,---,0.00,VWS V14.00,2013-05-23 00:54:00,
2013-05-22 20:59:00,76.5,70.6,29.87,South,190,0.0,0.0,82,0.00,,---,0.00,VWS V14.00,2013-05-23 00:59:00,
2013-05-22 21:04:00,76.0,70.1,29.88,South,184,2.0,2.0,82,0.00,,---,0.00,VWS V14.00,2013-05-23 01:04:00,
2013-05-22 21:09:00,75.8,70.3,29.88,SW,227,1.0,1.0,83,0.00,,---,0.00,VWS V14.00,2013-05-23 01:09:00,
2013-05-22 21:14:00,75.6,70.1,29.88,WSW,253,0.0,0.0,83,0.01,,---,0.01,VWS V14.00,2013-05-23 01:14:00,
2013-05-22 21:19:00,75.4,69.9,29.88,WSW,244,0.0,0.0,83,0.01,,---,0.01,VWS V14.00,2013-05-23 01:19:00,
2013-05-22 21:24:00,75.2,69.7,29.88,WSW,254,1.0,1.0,83,0.01,,---,0.01,VWS V14.00,2013-05-23 01:24:00,
2013-05-22 21:29:00,75.0,69.8,29.88,West,274,0.0,0.0,84,0.01,,---,0.01,VWS V14.00,2013-05-23 01:29:00,
2013-05-22 21:34:00,74.8,69.7,29.88,SSW,195,0.0,1.0,84,0.01,,---,0.01,VWS V14.00,2013-05-23 01:34:00,
2013-05-22 21:39:00,74.6,69.4,29.89,SSW,199,1.0,1.0,84,0.01,,---,0.01,VWS V14.00,2013-05-23 01:39:00,
2013-05-22 21:44:00,74.4,69.6,29.89,SSW,198,0.0,1.0,85,0.01,,---,0.01,VWS V14.00,2013-05-23 01:44:00,
2013-05-22 21:49:00,74.2,69.4,29.90,SW,227,0.0,0.0,85,0.01,,---,0.01,VWS V14.00,2013-05-23 01:49:00,
2013-05-22 21:54:00,74.0,69.2,29.90,SW,229,0.0,0.0,85,0.01,,---,0.01,VWS V14.00,2013-05-23 01:54:00,
2013-05-22 21:59:00,73.8,69.0,29.90,SSW,206,0.0,1.0,85,0.01,,---,0.01,VWS V14.00,2013-05-23 01:59:00,
2013-05-22 22:05:00,73.7,69.3,29.90,SSW,203,0.0,1.0,86,0.01,,---,0.01,VWS V14.00,2013-05-23 02:05:00,
2013-05-22 22:10:00,73.5,69.1,29.91,SSW,202,0.0,0.0,86,0.01,,---,0.01,VWS V14.00,2013-05-23 02:10:00,
2013-05-22 22:15:00,73.4,69.0,29.90,SSW,202,0.0,0.0,86,0.01,,---,0.01,VWS V14.00,2013-05-23 02:15:00,
2013-05-22 22:20:00,73.2,69.1,29.90,SSW,192,0.0,0.0,87,0.01,,---,0.01,VWS V14.00,2013-05-23 02:20:00,
2013-05-22 22:25:00,73.1,69.0,29.90,South,188,0.0,0.0,87,0.01,,---,0.01,VWS V14.00,2013-05-23 02:25:00,
2013-05-22 22:30:00,72.9,68.8,29.91,WSW,251,0.0,0.0,87,0.00,,---,0.01,VWS V14.00,2013-05-23 02:30:00,
2013-05-22 22:35:00,72.7,68.6,29.91,SW,227,0.0,1.0,87,0.00,,---,0.01,VWS V14.00,2013-05-23 02:35:00,
2013-05-22 22:40:00,72.5,68.4,29.91,West,275,0.0,0.0,87,0.00,,---,0.01,VWS V14.00,2013-05-23 02:40:00,
2013-05-22 22:45:00,72.4,68.3,29.91,WSW,247,0.0,0.0,87,0.00,,---,0.01,VWS V14.00,2013-05-23 02:45:00,
2013-05-22 22:50:00,72.2,68.4,29.91,South,175,0.0,0.0,88,0.00,,---,0.01,VWS V14.00,2013-05-23 02:50:00,
2013-05-22 22:55:00,72.1,68.3,29.91,SE,136,0.0,0.0,88,0.00,,---,0.01,VWS V14.00,2013-05-23 02:55:00,
2013-05-22 23:00:00,72.0,68.3,29.91,WNW,284,0.0,1.0,88,0.00,,---,0.01,VWS V14.00,2013-05-23 03:00:00,
2013-05-22 23:05:00,71.8,68.1,29.91,SSE,150,0.0,0.0,88,0.00,,---,0.01,VWS V14.00,2013-05-23 03:05:00,
2013-05-22 23:11:00,71.7,68.0,29.91,SSE,165,0.0,1.0,88,0.00,,---,0.01,VWS V14.00,2013-05-23 03:11:00,
2013-05-22 23:16:00,71.6,67.9,29.91,WSW,241,0.0,0.0,88,0.00,,---,0.01,VWS V14.00,2013-05-23 03:16:00,
2013-05-22 23:21:00,71.5,67.8,29.91,West,273,0.0,0.0,88,0.00,,---,0.01,VWS V14.00,2013-05-23 03:21:00,
2013-05-22 23:26:00,71.3,67.9,29.90,WNW,295,1.0,1.0,89,0.00,,---,0.01,VWS V14.00,2013-05-23 03:26:00,
2013-05-22 23:31:00,71.3,67.9,29.91,NNW,331,0.0,0.0,89,0.00,,---,0.01,VWS V14.00,2013-05-23 03:31:00,
2013-05-22 23:36:00,71.2,67.8,29.91,SSW,209,0.0,0.0,89,0.00,,---,0.01,VWS V14.00,2013-05-23 03:36:00,
2013-05-22 23:41:00,71.2,67.8,29.91,SW,229,0.0,1.0,89,0.00,,---,0.01,VWS V14.00,2013-05-23 03:41:00,
2013-05-22 23:46:00,71.1,67.7,29.91,SW,229,0.0,1.0,89,0.00,,---,0.01,VWS V14.00,2013-05-23 03:46:00,
2013-05-22 23:51:00,71.1,67.7,29.91,WNW,294,0.0,0.0,89,0.00,,---,0.01,VWS V14.00,2013-05-23 03:51:00,
2013-05-22 23:56:00,71.0,67.6,29.90,SW,221,0.0,0.0,89,0.00,,---,0.01,VWS V14.00,2013-05-23 03:56:00,